Time;durP1;ratioP1;P1;durP2;ratioP2;P2;SDS_P1;SDS_P2;PMS_P1;PMS_P2;Temp;Humidity;BMP_temperature;BMP_pressure;BME280_temperature;BME280_humidity;BME280_pressure;Samples;Min_cycle;Max_cycle;Signal;HPM_P1;HPM_P2
2022/08/08 10:59:00;;;;;;;5.17;4.85;;;;;;;21.88;100.00;100247.23;1776133;78;22046;-49
2022/08/08 11:01:29;;;;;;;5.12;4.83;;;;;;;21.69;100.00;100248.45;1748077;80;21109;-50
2022/08/08 11:03:58;;;;;;;4.65;4.37;;;;;;;21.60;100.00;100247.03;1748794;80;21154;-50
2022/08/08 11:06:33;;;;;;;4.05;3.85;;;;;;;21.46;100.00;100242.72;1745985;80;21370;-50
2022/08/08 11:09:03;;;;;;;4.40;4.10;;;;;;;21.41;100.00;100240.39;1744531;80;21040;-49
2022/08/08 11:11:43;;;;;;;4.35;4.12;;;;;;;21.42;100.00;100239.40;1750963;80;20978;-50
2022/08/08 11:14:13;;;;;;;7.53;4.33;;;;;;;21.52;100.00;100240.85;1749315;80;21585;-50
2022/08/08 11:16:42;;;;;;;4.50;4.10;;;;;;;21.60;100.00;100241.06;1749379;80;21213;-50
2022/08/08 11:19:09;;;;;;;3.35;3.05;;;;;;;21.59;100.00;100237.95;1746523;80;20958;-49
2022/08/08 11:21:44;;;;;;;4.17;3.98;;;;;;;21.58;100.00;100237.58;1749435;80;21096;-50
2022/08/08 11:24:08;;;;;;;5.08;4.72;;;;;;;21.64;100.00;100227.45;1747505;80;21128;-50
2022/08/08 11:26:41;;;;;;;3.92;3.60;;;;;;;21.72;100.00;100237.73;1749850;80;21097;-50
2022/08/08 11:29:08;;;;;;;7.37;5.83;;;;;;;21.72;100.00;100238.61;1747338;80;21128;-50
2022/08/08 11:31:39;;;;;;;4.47;4.05;;;;;;;21.76;100.00;100237.86;1751591;80;21064;-50
2022/08/08 11:34:05;;;;;;;4.58;4.20;;;;;;;21.82;100.00;100242.30;1751151;80;20867;-50
2022/08/08 11:36:33;;;;;;;7.30;4.25;;;;;;;21.90;100.00;100237.51;1746727;80;491064;-50
2022/08/08 11:38:59;;;;;;;7.40;3.65;;;;;;;21.97;100.00;100234.63;1750479;80;20946;-50
2022/08/08 11:41:27;;;;;;;3.85;3.60;;;;;;;22.02;100.00;100231.50;1755629;80;21093;-50
2022/08/08 11:43:53;;;;;;;4.10;3.80;;;;;;;22.06;100.00;100232.95;1713463;80;892029;-49
2022/08/08 11:46:23;;;;;;;3.92;3.72;;;;;;;22.06;100.00;100232.45;1749366;80;20958;-50
2022/08/08 11:48:50;;;;;;;4.25;4.03;;;;;;;22.00;100.00;100237.61;1737303;80;797442;-50
2022/08/08 11:51:17;;;;;;;5.60;5.30;;;;;;;21.95;100.00;100236.59;1745970;80;20926;-50
2022/08/08 11:53:44;;;;;;;3.50;3.30;;;;;;;21.87;100.00;100233.16;1729130;80;892535;-51
2022/08/08 11:56:23;;;;;;;4.67;4.37;;;;;;;21.81;100.00;100239.68;1750155;80;25040;-50
2022/08/08 11:58:50;;;;;;;6.55;3.92;;;;;;;21.65;100.00;100229.19;1713325;80;21433;-50
2022/08/08 12:01:16;;;;;;;4.35;3.27;;;;;;;21.60;100.00;100237.45;1708281;82;20954;-50
2022/08/08 12:03:48;;;;;;;3.92;3.67;;;;;;;21.57;100.00;100235.83;1705686;82;21414;-50
2022/08/08 12:06:17;;;;;;;6.62;5.05;;;;;;;21.62;100.00;100235.42;1617496;82;974747;-50
2022/08/08 12:08:43;;;;;;;4.83;4.25;;;;;;;21.65;100.00;100236.04;1706821;82;21453;-50
2022/08/08 13:11:55;;;;;;;4.43;4.13;;;;;;;21.60;100.00;100239.69;1624725;82;975059;-49
2022/08/08 13:21:30;;;;;;;2.33;2.22;;;;;;;21.60;100.00;100239.69;1729213;80;564578;-49
2022/08/08 13:23:57;;;;;;;2.45;2.25;;;;;;;21.60;100.00;100239.69;1738335;81;21069;-50
2022/08/08 13:36:26;;;;;;;2.87;2.42;;;;;;;21.97;100.00;100233.72;1564369;81;975705;-50
2022/08/08 13:38:55;;;;;;;2.22;2.12;;;;;;;21.97;100.00;100233.72;1743613;80;21148;-51
2022/08/08 13:41:22;;;;;;;1.82;1.72;;;;;;;22.15;100.00;100230.27;1740931;81;21081;-50
2022/08/08 13:43:48;;;;;;;1.75;1.60;;;;;;;22.15;100.00;100225.28;1713618;82;21073;-50
2022/08/08 13:46:15;;;;;;;2.65;2.27;;;;;;;22.18;100.00;100225.89;1744846;80;21042;-50
2022/08/08 13:48:46;;;;;;;2.55;1.50;;;;;;;22.23;100.00;100230.45;1740453;80;21128;-50
2022/08/08 13:51:17;;;;;;;1.90;1.40;;;;;;;22.26;100.00;100224.70;1738180;80;21799;-50
2022/08/08 13:53:55;;;;;;;2.30;2.08;;;;;;;22.30;100.00;100231.27;1738753;80;21116;-50
2022/08/08 13:56:30;;;;;;;1.70;1.60;;;;;;;22.27;100.00;100228.31;1711388;81;892442;-51
2022/08/08 13:58:56;;;;;;;2.45;2.33;;;;;;;22.23;100.00;100226.34;1664974;80;975095;-50
2022/08/08 14:01:31;;;;;;;2.40;1.82;;;;;;;22.24;100.00;100225.34;1733817;80;21089;-50
2022/08/08 14:04:00;;;;;;;2.33;2.12;;;;;;;22.20;100.00;100224.39;1735097;80;21057;-51
2022/08/08 14:07:46;;;;;;;2.23;2.13;;;;;;;22.19;100.00;100227.63;1602276;81;975364;-51
2022/08/08 14:19:09;;;;;;;3.22;2.08;;;;;;;22.19;100.00;100227.63;1494034;81;977766;-49
2022/08/08 15:00:42;;;;;;;2.47;2.27;;;;;;;22.19;100.00;100227.63;1509431;80;984792;-50
2022/08/08 15:03:08;;;;;;;1.40;1.27;;;;;;;22.19;100.00;100227.63;1704205;80;892558;-50
2022/08/08 15:05:35;;;;;;;1.50;1.40;;;;;;;22.02;100.00;100210.94;1743359;80;21124;-50
2022/08/08 15:08:01;;;;;;;2.17;1.20;;;;;;;21.98;100.00;100213.07;1744695;80;20954;-50
2022/08/08 15:10:28;;;;;;;2.10;1.50;;;;;;;21.99;100.00;100209.33;1741376;80;21642;-50
2022/08/08 15:12:55;;;;;;;2.25;2.02;;;;;;;22.03;100.00;100209.94;1743847;80;21061;-50
2022/08/08 15:15:22;;;;;;;1.65;1.55;;;;;;;22.06;100.00;100213.76;1736983;80;22441;-51
2022/08/08 15:17:49;;;;;;;3.77;1.80;;;;;;;22.06;100.00;100209.14;1740719;80;21435;-50
2022/08/08 15:20:16;;;;;;;1.82;1.72;;;;;;;22.05;100.00;100212.89;1717032;80;974775;-50
2022/08/08 15:22:42;;;;;;;1.32;1.22;;;;;;;22.04;100.00;100202.92;1704225;81;975240;-49
2022/08/08 15:25:09;;;;;;;3.30;1.40;;;;;;;22.05;100.00;100210.65;1743051;80;26625;-50
2022/08/08 15:27:36;;;;;;;1.42;1.10;;;;;;;21.95;100.00;100209.19;1745883;80;20981;-50
2022/08/08 15:30:08;;;;;;;2.85;1.60;;;;;;;21.92;100.00;100208.61;1739964;81;21173;-50
2022/08/08 15:32:36;;;;;;;1.40;1.07;;;;;;;21.90;100.00;100204.62;1736367;80;546149;-49
2022/08/08 16:16:21;;;;;;;1.07;1.00;;;;;;;21.85;100.00;100202.30;1584256;80;975384;-50
2022/08/08 16:18:47;;;;;;;3.75;1.10;;;;;;;21.85;100.00;100202.30;1739440;80;21787;-50
2022/08/08 16:21:14;;;;;;;1.70;1.22;;;;;;;21.21;100.00;100220.67;1743983;81;21102;-50
2022/08/08 16:23:40;;;;;;;1.37;1.20;;;;;;;21.11;100.00;100220.55;1744146;80;21057;-49
2022/08/08 16:26:06;;;;;;;1.10;1.00;;;;;;;21.07;100.00;100224.55;1739150;80;21073;-49
2022/08/08 16:28:33;;;;;;;1.17;0.90;;;;;;;21.04;100.00;100218.45;1740787;80;21354;-49
2022/08/08 16:31:00;;;;;;;1.07;0.98;;;;;;;21.00;100.00;100221.97;1743608;81;21146;-49
2022/08/08 16:33:27;;;;;;;0.98;0.90;;;;;;;21.01;100.00;100230.52;1739634;80;20973;-50
2022/08/08 16:35:53;;;;;;;1.25;0.82;;;;;;;21.03;100.00;100227.66;1739581;80;21508;-50
2022/08/08 16:38:20;;;;;;;1.02;0.90;;;;;;;21.03;100.00;100228.53;1744005;80;22396;-49
2022/08/08 16:40:46;;;;;;;1.00;0.90;;;;;;;20.99;100.00;100229.80;1744589;80;21662;-49
2022/08/08 16:43:13;;;;;;;0.80;0.80;;;;;;;20.99;100.00;100231.17;1739848;80;21856;-49
2022/08/08 16:46:26;;;;;;;1.57;1.00;;;;;;;20.99;100.00;100234.41;1706179;80;984667;-48
2022/08/08 16:48:53;;;;;;;0.80;0.80;;;;;;;20.99;100.00;100234.41;1743675;80;20965;-49
2022/08/08 16:51:20;;;;;;;0.80;0.70;;;;;;;21.00;100.00;100225.20;1740839;80;21081;-49
2022/08/08 16:53:48;;;;;;;1.10;0.72;;;;;;;21.01;100.00;100225.58;1741399;80;21093;-49
2022/08/08 16:56:14;;;;;;;1.87;0.80;;;;;;;21.10;100.00;100220.67;1739977;80;21420;-49
2022/08/08 16:58:40;;;;;;;2.08;0.90;;;;;;;21.01;100.00;100226.42;1739168;80;21507;-49
2022/08/08 17:01:12;;;;;;;1.90;0.80;;;;;;;21.04;100.00;100233.02;1740435;80;21109;-50
2022/08/08 17:03:38;;;;;;;1.10;1.00;;;;;;;21.06;100.00;100237.87;1745717;80;20875;-49
2022/08/08 17:20:36;;;;;;;3.55;0.80;;;;;;;21.05;100.00;100239.36;1490728;81;984500;-50
2022/08/08 18:21:59;;;;;;;1.66;0.80;;;;;;;21.05;100.00;100239.36;1473981;81;985499;-50
2022/08/08 18:24:27;;;;;;;5.15;1.20;;;;;;;21.05;100.00;100239.36;1700405;82;21623;-50
2022/08/08 18:26:56;;;;;;;1.70;1.07;;;;;;;19.36;100.00;100293.03;1703562;82;21084;-50
2022/08/08 18:29:29;;;;;;;5.42;1.42;;;;;;;19.40;100.00;100287.70;1701925;83;21684;-50
2022/08/08 18:31:57;;;;;;;3.80;1.20;;;;;;;19.23;100.00;100291.22;1698996;82;21484;-50
2022/08/08 18:34:24;;;;;;;4.50;1.40;;;;;;;19.18;100.00;100283.88;1666268;84;21046;-49
2022/08/08 18:36:51;;;;;;;4.92;1.37;;;;;;;19.12;100.00;100289.81;1659235;84;21097;-50
2022/08/08 18:39:17;;;;;;;2.02;1.10;;;;;;;19.08;100.00;100289.64;1658859;84;21068;-50
2022/08/08 18:41:44;;;;;;;3.00;1.00;;;;;;;19.06;100.00;100286.64;1661116;84;21156;-50
2022/08/08 18:44:10;;;;;;;4.40;1.00;;;;;;;19.03;100.00;100286.41;1658520;85;21598;-50
2022/08/08 18:46:37;;;;;;;3.00;0.95;;;;;;;19.02;100.00;100282.42;1659570;84;21448;-50
2022/08/08 18:49:04;;;;;;;3.55;0.90;;;;;;;19.00;100.00;100282.53;1659139;84;21505;-50
2022/08/08 18:51:32;;;;;;;2.92;1.30;;;;;;;18.99;100.00;100284.00;1658200;84;21097;-50
2022/08/08 18:53:59;;;;;;;3.37;0.98;;;;;;;18.96;100.00;100289.22;1655427;84;21162;-50
2022/08/08 18:56:29;;;;;;;5.87;1.65;;;;;;;18.95;100.00;100286.11;1657062;84;21151;-50
2022/08/08 18:58:55;;;;;;;2.75;0.90;;;;;;;18.96;100.00;100285.61;1658966;84;21113;-50
2022/08/08 19:01:22;;;;;;;5.22;1.40;;;;;;;18.94;100.00;100278.03;1658180;84;21141;-50
2022/08/08 19:03:49;;;;;;;7.33;1.02;;;;;;;18.92;100.00;100282.23;1650061;84;21133;-50
2022/08/08 19:06:15;;;;;;;3.47;0.90;;;;;;;18.88;100.00;100284.83;1653648;84;21157;-50
2022/08/08 19:08:42;;;;;;;7.20;1.63;;;;;;;18.87;100.00;100291.26;1651191;83;975434;-50
2022/08/08 19:11:09;;;;;;;1.75;1.00;;;;;;;18.84;100.00;100284.17;1673675;83;20994;-50
2022/08/08 19:13:36;;;;;;;1.62;1.25;;;;;;;18.80;100.00;100293.55;1731844;81;21006;-50
2022/08/08 19:16:04;;;;;;;2.92;1.47;;;;;;;18.78;100.00;100288.72;1733035;80;22342;-50
2022/08/08 19:18:31;;;;;;;2.45;2.22;;;;;;;18.75;100.00;100298.97;1737159;80;21102;-50
2022/08/08 19:20:58;;;;;;;6.20;3.17;;;;;;;18.70;100.00;100295.23;1736038;80;21018;-50
2022/08/08 19:23:25;;;;;;;5.47;4.28;;;;;;;18.66;100.00;100296.91;1736635;80;21058;-50
2022/08/08 19:25:52;;;;;;;9.83;5.28;;;;;;;18.67;100.00;100302.26;1735407;80;21071;-50
2022/08/08 19:28:19;;;;;;;5.62;3.20;;;;;;;18.68;100.00;100308.09;1729890;80;21058;-51
2022/08/08 19:30:45;;;;;;;4.90;1.90;;;;;;;18.72;100.00;100306.88;1734861;81;21217;-51
2022/08/08 19:33:12;;;;;;;4.83;1.30;;;;;;;18.73;100.00;100311.84;1733396;80;21102;-50
2022/08/08 19:35:39;;;;;;;2.12;1.30;;;;;;;18.64;100.00;100302.95;1733320;81;22405;-49
2022/08/08 19:38:05;;;;;;;3.10;1.20;;;;;;;18.59;100.00;100299.70;1735414;81;21090;-50
2022/08/08 19:40:33;;;;;;;3.35;1.05;;;;;;;18.56;100.00;100298.52;1732970;80;21423;-50
2022/08/08 19:43:00;;;;;;;5.97;1.43;;;;;;;18.53;100.00;100299.64;1722646;81;975380;-50
2022/08/08 19:45:26;;;;;;;2.45;1.72;;;;;;;18.51;100.00;100292.05;1732932;80;21090;-50
2022/08/08 19:47:54;;;;;;;7.10;1.45;;;;;;;18.50;100.00;100287.09;1737345;80;21041;-50
2022/08/08 19:50:21;;;;;;;6.47;0.90;;;;;;;18.51;100.00;100286.11;1733532;80;20991;-50
2022/08/08 19:52:47;;;;;;;2.15;0.90;;;;;;;18.51;100.00;100288.84;1731112;80;21129;-50
2022/08/08 19:55:14;;;;;;;2.27;0.90;;;;;;;18.51;100.00;100292.93;1737613;80;21217;-49
2022/08/08 19:57:44;;;;;;;4.45;0.90;;;;;;;18.54;100.00;100299.50;1731173;81;21186;-50
2022/08/08 20:00:13;;;;;;;2.20;0.90;;;;;;;18.58;100.00;100296.60;1668841;80;974765;-50
2022/08/08 20:02:40;;;;;;;6.42;1.10;;;;;;;18.53;100.00;100298.28;1736122;80;21559;-50
2022/08/08 20:05:07;;;;;;;2.02;1.10;;;;;;;18.50;100.00;100299.84;1734798;80;21408;-50
2022/08/08 20:07:35;;;;;;;6.08;1.05;;;;;;;18.50;100.00;100293.03;1738173;80;20981;-50
2022/08/08 20:12:41;;;;;;;1.87;1.22;;;;;;;18.50;100.00;100293.03;1855006;75;28778;-49
2022/08/08 20:18:12;;;;;;;4.87;1.65;;;;;;;18.45;100.00;100293.88;1731184;77;975067;-48
2022/08/08 20:20:39;;;;;;;8.70;1.32;;;;;;;18.45;100.00;100293.88;1811418;77;22079;-50
2022/08/08 20:23:05;;;;;;;1.65;1.55;;;;;;;18.28;100.00;100291.48;1774109;78;20937;-49
2022/08/08 20:25:32;;;;;;;3.15;1.47;;;;;;;18.21;100.00;100292.39;1778234;78;21075;-49
2022/08/08 20:28:01;;;;;;;12.45;1.57;;;;;;;18.15;100.00;100290.98;1775137;78;21055;-49
2022/08/08 20:30:27;;;;;;;2.40;1.32;;;;;;;18.08;100.00;100292.41;1775798;78;21082;-50
2022/08/08 20:32:54;;;;;;;5.58;1.10;;;;;;;18.02;100.00;100291.97;1776458;78;21076;-49
2022/08/08 20:35:20;;;;;;;3.30;1.30;;;;;;;17.95;100.00;100294.23;1781777;78;20953;-49
2022/08/08 20:37:47;;;;;;;4.80;1.20;;;;;;;17.92;100.00;100294.95;1770860;78;20929;-49
2022/08/08 20:40:13;;;;;;;7.25;1.37;;;;;;;17.88;100.00;100292.92;1776354;78;21538;-49
2022/08/08 20:42:40;;;;;;;4.70;1.20;;;;;;;17.87;100.00;100294.37;1768377;79;21108;-49
2022/08/08 20:45:07;;;;;;;2.92;1.17;;;;;;;17.86;100.00;100290.81;1762790;78;21053;-50
2022/08/08 20:47:34;;;;;;;6.78;1.40;;;;;;;17.87;100.00;100293.02;1761613;78;21264;-50
2022/08/08 20:50:00;;;;;;;6.20;2.02;;;;;;;17.86;100.00;100300.34;1765485;79;21081;-50
2022/08/08 20:52:28;;;;;;;6.65;1.10;;;;;;;17.86;100.00;100303.07;1762177;79;21445;-50
2022/08/08 20:54:55;;;;;;;6.12;1.25;;;;;;;17.88;100.00;100298.85;1766561;78;22814;-50
2022/08/08 20:57:22;;;;;;;5.30;1.10;;;;;;;17.89;100.00;100305.56;1753599;79;21036;-50
2022/08/08 20:59:48;;;;;;;7.15;1.62;;;;;;;17.91;100.00;100302.25;1739738;79;21069;-49
2022/08/08 21:16:28;;;;;;;3.23;1.23;;;;;;;17.91;100.00;100299.52;1661263;79;975320;-48
2022/08/08 21:18:56;;;;;;;5.40;1.22;;;;;;;17.91;100.00;100299.52;1740000;79;21119;-50
2022/08/08 21:21:23;;;;;;;3.02;1.10;;;;;;;17.79;100.00;100305.81;1743689;79;21076;-50
2022/08/08 21:23:50;;;;;;;9.50;1.30;;;;;;;17.66;100.00;100311.24;1741970;79;21049;-49
2022/08/08 21:26:16;;;;;;;7.15;1.02;;;;;;;17.58;100.00;100299.10;1744687;79;21056;-49
2022/08/08 21:28:43;;;;;;;11.88;1.10;;;;;;;17.53;100.00;100300.76;1743438;79;21543;-49
2022/08/08 21:31:09;;;;;;;6.97;1.65;;;;;;;17.49;100.00;100299.73;1742479;79;21205;-49
2022/08/08 21:33:36;;;;;;;6.22;1.12;;;;;;;17.45;100.00;100294.97;1741399;79;21545;-49
2022/08/08 21:36:16;;;;;;;3.98;1.10;;;;;;;17.43;100.00;100299.67;1742937;79;21088;-49
2022/08/08 21:38:43;;;;;;;5.45;1.92;;;;;;;17.42;100.00;100307.93;1739190;79;21431;-49
2022/08/08 21:41:10;;;;;;;6.17;1.15;;;;;;;17.40;100.00;100309.39;1745309;79;21542;-49
2022/08/08 21:43:36;;;;;;;6.50;1.22;;;;;;;17.40;100.00;100308.90;1740181;79;21162;-49
2022/08/08 21:46:07;;;;;;;7.78;1.47;;;;;;;17.39;100.00;100315.31;1743152;79;21057;-49
2022/08/08 21:48:34;;;;;;;3.05;1.47;;;;;;;17.36;100.00;100312.79;1758548;79;21585;-49
2022/08/08 21:51:04;;;;;;;3.15;1.40;;;;;;;17.33;100.00;100315.73;1739780;80;21585;-49
2022/08/08 21:53:30;;;;;;;1.65;1.55;;;;;;;17.31;100.00;100310.88;1735879;79;21151;-48
2022/08/08 21:55:57;;;;;;;7.40;1.47;;;;;;;17.30;100.00;100314.58;1745114;79;21512;-49
2022/08/08 21:58:24;;;;;;;4.00;1.30;;;;;;;17.29;100.00;100314.19;1740768;79;21057;-48
2022/08/08 22:00:50;;;;;;;5.75;1.60;;;;;;;17.29;100.00;100318.75;1741023;79;21135;-49
2022/08/08 22:03:17;;;;;;;8.53;1.20;;;;;;;17.27;100.00;100313.41;1735181;79;21057;-49
2022/08/08 22:05:43;;;;;;;3.75;2.05;;;;;;;17.28;100.00;100313.80;1741587;80;21096;-49
2022/08/08 22:08:10;;;;;;;6.37;1.50;;;;;;;17.28;100.00;100313.80;1761283;79;22757;-49
2022/08/08 22:10:36;;;;;;;4.60;1.62;;;;;;;17.28;100.00;100315.64;1759258;79;21077;-49
2022/08/08 22:13:04;;;;;;;5.28;1.95;;;;;;;17.26;100.00;100318.49;1760659;78;21084;-49
2022/08/08 22:15:31;;;;;;;4.37;1.98;;;;;;;17.24;100.00;100316.35;1774494;78;21091;-49
2022/08/08 22:17:57;;;;;;;6.47;1.95;;;;;;;17.23;100.00;100303.72;1772600;78;21709;-49
2022/08/08 22:20:24;;;;;;;5.53;1.30;;;;;;;17.23;100.00;100303.72;1773261;78;21503;-50
2022/08/08 22:24:26;;;;;;;9.60;1.40;;;;;;;17.22;100.00;100301.97;1712011;78;985064;-48
2022/08/08 22:26:52;;;;;;;5.97;1.52;;;;;;;17.22;100.00;100301.97;1770251;78;21095;-49
2022/08/08 22:29:18;;;;;;;4.50;1.45;;;;;;;17.18;100.00;100305.86;1774026;78;21092;-49
2022/08/08 22:31:45;;;;;;;5.42;1.60;;;;;;;17.14;100.00;100302.09;1773405;78;21104;-49
2022/08/08 22:34:11;;;;;;;5.12;1.57;;;;;;;17.13;100.00;100297.14;1770236;78;21036;-49
2022/08/08 22:36:38;;;;;;;2.55;1.20;;;;;;;17.14;100.00;100298.02;1770188;78;21415;-49
2022/08/08 22:39:04;;;;;;;6.83;1.40;;;;;;;17.13;100.00;100301.70;1771755;78;21322;-49
2022/08/08 22:41:32;;;;;;;3.52;1.37;;;;;;;17.11;100.00;100296.84;1771351;78;21068;-49
2022/08/08 22:43:58;;;;;;;3.43;1.30;;;;;;;17.10;100.00;100298.69;1744694;78;975550;-49
2022/08/08 22:46:25;;;;;;;7.33;1.80;;;;;;;17.08;100.00;100303.39;1778493;78;21502;-49
2022/08/08 22:48:51;;;;;;;5.90;1.42;;;;;;;17.06;100.00;100306.69;1772045;78;20986;-48
2022/08/08 22:51:20;;;;;;;3.33;1.77;;;;;;;17.07;100.00;100308.44;1723316;78;975070;-49
2022/08/08 22:53:47;;;;;;;5.20;1.83;;;;;;;17.10;100.00;100308.73;1696396;78;975396;-49
2022/08/08 22:56:13;;;;;;;6.10;2.75;;;;;;;17.10;100.00;100304.13;1770168;78;20894;-49
2022/08/08 22:58:40;;;;;;;4.03;1.35;;;;;;;17.10;100.00;100306.02;1773386;78;20902;-49
